sensor_id;sensor_type;location;lat;lon;timestamp;P1;durP1;ratioP1;P2;durP2;ratioP2
52964;SDS011;42923;53.220;6.528;2023-08-01T00:02:10;26.08;;;6.78;;
52964;SDS011;42923;53.220;6.528;2023-08-01T00:04:36;10.82;;;5.40;;
52964;SDS011;42923;53.220;6.528;2023-08-01T00:07:02;18.63;;;6.10;;
52964;SDS011;42923;53.220;6.528;2023-08-01T00:09:27;12.77;;;5.45;;
52964;SDS011;42923;53.220;6.528;2023-08-01T00:11:53;15.05;;;5.07;;
52964;SDS011;42923;53.220;6.528;2023-08-01T00:14:20;12.10;;;5.57;;
52964;SDS011;42923;53.220;6.528;2023-08-01T00:16:49;10.60;;;5.40;;
52964;SDS011;42923;53.220;6.528;2023-08-01T00:19:15;11.20;;;5.32;;
52964;SDS011;42923;53.220;6.528;2023-08-01T00:21:41;15.15;;;5.57;;
52964;SDS011;42923;53.220;6.528;2023-08-01T00:24:07;14.55;;;6.45;;
52964;SDS011;42923;53.220;6.528;2023-08-01T00:26:33;14.88;;;6.13;;
52964;SDS011;42923;53.220;6.528;2023-08-01T00:28:59;17.63;;;6.32;;
52964;SDS011;42923;53.220;6.528;2023-08-01T00:31:25;11.00;;;5.43;;
52964;SDS011;42923;53.220;6.528;2023-08-01T00:33:51;12.27;;;5.53;;
52964;SDS011;42923;53.220;6.528;2023-08-01T00:36:16;12.43;;;5.88;;
52964;SDS011;42923;53.220;6.528;2023-08-01T00:38:42;17.05;;;5.95;;
52964;SDS011;42923;53.220;6.528;2023-08-01T00:41:09;20.17;;;6.20;;
52964;SDS011;42923;53.220;6.528;2023-08-01T00:43:35;13.68;;;5.65;;
52964;SDS011;42923;53.220;6.528;2023-08-01T00:46:01;16.15;;;6.28;;
52964;SDS011;42923;53.220;6.528;2023-08-01T00:48:30;13.70;;;5.70;;
52964;SDS011;42923;53.220;6.528;2023-08-01T00:50:59;11.32;;;5.57;;
52964;SDS011;42923;53.220;6.528;2023-08-01T00:53:29;11.60;;;5.50;;
52964;SDS011;42923;53.220;6.528;2023-08-01T00:55:56;11.55;;;4.97;;
52964;SDS011;42923;53.220;6.528;2023-08-01T00:58:22;15.05;;;6.30;;
52964;SDS011;42923;53.220;6.528;2023-08-01T01:00:48;14.27;;;5.75;;
52964;SDS011;42923;53.220;6.528;2023-08-01T01:03:15;11.48;;;5.38;;
52964;SDS011;42923;53.220;6.528;2023-08-01T01:08:40;13.10;;;5.80;;
52964;SDS011;42923;53.220;6.528;2023-08-01T01:11:07;14.98;;;5.97;;
52964;SDS011;42923;53.220;6.528;2023-08-01T01:13:33;13.63;;;5.50;;
52964;SDS011;42923;53.220;6.528;2023-08-01T01:16:00;13.40;;;5.20;;
52964;SDS011;42923;53.220;6.528;2023-08-01T01:18:26;24.35;;;6.30;;
52964;SDS011;42923;53.220;6.528;2023-08-01T01:20:51;14.23;;;5.43;;
52964;SDS011;42923;53.220;6.528;2023-08-01T01:23:17;10.27;;;6.07;;
52964;SDS011;42923;53.220;6.528;2023-08-01T01:25:44;12.65;;;5.28;;
52964;SDS011;42923;53.220;6.528;2023-08-01T01:28:11;12.13;;;5.18;;
52964;SDS011;42923;53.220;6.528;2023-08-01T01:30:39;13.02;;;5.50;;
52964;SDS011;42923;53.220;6.528;2023-08-01T01:33:07;10.00;;;5.18;;
52964;SDS011;42923;53.220;6.528;2023-08-01T01:35:34;14.63;;;5.60;;
52964;SDS011;42923;53.220;6.528;2023-08-01T01:38:00;10.73;;;5.65;;
52964;SDS011;42923;53.220;6.528;2023-08-01T01:40:29;13.32;;;6.13;;
52964;SDS011;42923;53.220;6.528;2023-08-01T01:42:56;8.02;;;5.45;;
52964;SDS011;42923;53.220;6.528;2023-08-01T01:45:22;21.33;;;5.78;;
52964;SDS011;42923;53.220;6.528;2023-08-01T01:47:48;14.57;;;6.30;;
52964;SDS011;42923;53.220;6.528;2023-08-01T01:50:13;10.45;;;5.53;;
52964;SDS011;42923;53.220;6.528;2023-08-01T01:52:39;11.13;;;6.10;;
52964;SDS011;42923;53.220;6.528;2023-08-01T01:55:05;15.43;;;6.28;;
52964;SDS011;42923;53.220;6.528;2023-08-01T01:57:32;19.83;;;6.07;;
52964;SDS011;42923;53.220;6.528;2023-08-01T01:59:58;12.32;;;5.72;;
52964;SDS011;42923;53.220;6.528;2023-08-01T02:02:24;19.13;;;7.28;;
52964;SDS011;42923;53.220;6.528;2023-08-01T02:04:51;15.45;;;6.82;;
52964;SDS011;42923;53.220;6.528;2023-08-01T02:07:18;15.10;;;6.57;;
52964;SDS011;42923;53.220;6.528;2023-08-01T02:09:44;21.85;;;6.63;;
52964;SDS011;42923;53.220;6.528;2023-08-01T02:12:10;17.73;;;6.15;;
52964;SDS011;42923;53.220;6.528;2023-08-01T02:14:39;24.23;;;6.82;;
52964;SDS011;42923;53.220;6.528;2023-08-01T02:17:04;15.70;;;7.15;;
52964;SDS011;42923;53.220;6.528;2023-08-01T02:19:30;14.18;;;6.53;;
52964;SDS011;42923;53.220;6.528;2023-08-01T02:21:57;21.35;;;7.00;;
52964;SDS011;42923;53.220;6.528;2023-08-01T02:24:23;23.65;;;7.13;;
52964;SDS011;42923;53.220;6.528;2023-08-01T02:26:49;17.48;;;6.55;;
52964;SDS011;42923;53.220;6.528;2023-08-01T02:29:16;17.63;;;6.75;;
52964;SDS011;42923;53.220;6.528;2023-08-01T02:31:42;20.85;;;6.88;;
52964;SDS011;42923;53.220;6.528;2023-08-01T02:34:08;16.42;;;6.65;;
52964;SDS011;42923;53.220;6.528;2023-08-01T02:36:33;24.00;;;6.80;;
52964;SDS011;42923;53.220;6.528;2023-08-01T02:38:59;13.43;;;5.90;;
52964;SDS011;42923;53.220;6.528;2023-08-01T02:41:25;17.02;;;6.20;;
52964;SDS011;42923;53.220;6.528;2023-08-01T02:43:51;21.67;;;6.63;;
52964;SDS011;42923;53.220;6.528;2023-08-01T02:46:17;16.75;;;6.75;;
52964;SDS011;42923;53.220;6.528;2023-08-01T02:48:42;15.25;;;6.70;;
52964;SDS011;42923;53.220;6.528;2023-08-01T02:51:08;23.05;;;6.63;;
52964;SDS011;42923;53.220;6.528;2023-08-01T02:53:35;14.98;;;6.03;;
52964;SDS011;42923;53.220;6.528;2023-08-01T02:56:01;26.42;;;7.03;;
52964;SDS011;42923;53.220;6.528;2023-08-01T02:58:28;27.75;;;6.85;;
52964;SDS011;42923;53.220;6.528;2023-08-01T03:00:54;15.52;;;6.25;;
52964;SDS011;42923;53.220;6.528;2023-08-01T03:03:19;26.48;;;6.70;;
52964;SDS011;42923;53.220;6.528;2023-08-01T03:05:47;18.70;;;7.20;;
52964;SDS011;42923;53.220;6.528;2023-08-01T03:08:12;16.10;;;6.65;;
52964;SDS011;42923;53.220;6.528;2023-08-01T03:10:38;17.67;;;7.13;;
52964;SDS011;42923;53.220;6.528;2023-08-01T03:13:04;23.45;;;8.10;;
52964;SDS011;42923;53.220;6.528;2023-08-01T03:15:31;21.90;;;7.50;;
52964;SDS011;42923;53.220;6.528;2023-08-01T03:17:57;21.60;;;8.63;;
52964;SDS011;42923;53.220;6.528;2023-08-01T03:20:22;24.42;;;8.82;;
52964;SDS011;42923;53.220;6.528;2023-08-01T03:22:48;19.10;;;7.65;;
52964;SDS011;42923;53.220;6.528;2023-08-01T03:25:14;21.77;;;8.32;;
52964;SDS011;42923;53.220;6.528;2023-08-01T03:27:40;20.42;;;8.20;;
52964;SDS011;42923;53.220;6.528;2023-08-01T03:30:06;21.77;;;8.38;;
52964;SDS011;42923;53.220;6.528;2023-08-01T03:32:34;27.50;;;9.82;;
52964;SDS011;42923;53.220;6.528;2023-08-01T03:35:03;23.35;;;8.88;;
52964;SDS011;42923;53.220;6.528;2023-08-01T03:37:29;21.85;;;8.68;;
52964;SDS011;42923;53.220;6.528;2023-08-01T03:39:55;15.43;;;7.95;;
52964;SDS011;42923;53.220;6.528;2023-08-01T03:42:21;21.85;;;7.88;;
52964;SDS011;42923;53.220;6.528;2023-08-01T03:44:46;20.45;;;7.90;;
52964;SDS011;42923;53.220;6.528;2023-08-01T03:47:12;18.63;;;7.45;;
52964;SDS011;42923;53.220;6.528;2023-08-01T03:49:38;18.45;;;6.70;;
52964;SDS011;42923;53.220;6.528;2023-08-01T03:52:04;19.02;;;7.15;;
52964;SDS011;42923;53.220;6.528;2023-08-01T03:54:31;16.13;;;7.05;;
52964;SDS011;42923;53.220;6.528;2023-08-01T03:56:57;12.15;;;6.22;;
52964;SDS011;42923;53.220;6.528;2023-08-01T03:59:23;17.52;;;6.35;;
52964;SDS011;42923;53.220;6.528;2023-08-01T04:01:49;12.63;;;6.20;;
52964;SDS011;42923;53.220;6.528;2023-08-01T04:04:15;16.70;;;5.75;;
52964;SDS011;42923;53.220;6.528;2023-08-01T04:06:42;15.90;;;5.45;;
52964;SDS011;42923;53.220;6.528;2023-08-01T04:09:07;13.32;;;5.22;;
52964;SDS011;42923;53.220;6.528;2023-08-01T04:11:33;13.88;;;5.03;;
52964;SDS011;42923;53.220;6.528;2023-08-01T04:13:59;14.82;;;4.70;;
52964;SDS011;42923;53.220;6.528;2023-08-01T04:16:25;18.38;;;5.20;;
52964;SDS011;42923;53.220;6.528;2023-08-01T04:18:50;12.93;;;4.22;;
52964;SDS011;42923;53.220;6.528;2023-08-01T04:21:16;11.20;;;4.50;;
52964;SDS011;42923;53.220;6.528;2023-08-01T04:23:42;8.07;;;3.75;;
52964;SDS011;42923;53.220;6.528;2023-08-01T04:26:07;13.30;;;4.60;;
52964;SDS011;42923;53.220;6.528;2023-08-01T04:28:33;16.80;;;4.10;;
52964;SDS011;42923;53.220;6.528;2023-08-01T04:30:59;14.20;;;4.10;;
52964;SDS011;42923;53.220;6.528;2023-08-01T04:33:25;14.70;;;3.95;;
52964;SDS011;42923;53.220;6.528;2023-08-01T04:35:51;13.57;;;3.88;;
52964;SDS011;42923;53.220;6.528;2023-08-01T04:38:17;13.48;;;4.47;;
52964;SDS011;42923;53.220;6.528;2023-08-01T04:40:43;11.40;;;4.63;;
52964;SDS011;42923;53.220;6.528;2023-08-01T04:43:09;11.70;;;4.05;;
52964;SDS011;42923;53.220;6.528;2023-08-01T04:45:35;12.45;;;4.38;;
52964;SDS011;42923;53.220;6.528;2023-08-01T04:48:01;17.48;;;4.00;;
52964;SDS011;42923;53.220;6.528;2023-08-01T04:50:27;11.00;;;4.05;;
52964;SDS011;42923;53.220;6.528;2023-08-01T04:52:53;11.77;;;4.30;;
52964;SDS011;42923;53.220;6.528;2023-08-01T04:55:18;12.57;;;4.10;;
52964;SDS011;42923;53.220;6.528;2023-08-01T04:57:44;10.63;;;3.50;;
52964;SDS011;42923;53.220;6.528;2023-08-01T05:00:10;8.32;;;3.10;;
52964;SDS011;42923;53.220;6.528;2023-08-01T05:02:36;11.77;;;2.75;;
52964;SDS011;42923;53.220;6.528;2023-08-01T05:05:02;16.27;;;3.28;;
52964;SDS011;42923;53.220;6.528;2023-08-01T05:07:29;15.80;;;4.07;;
52964;SDS011;42923;53.220;6.528;2023-08-01T05:09:55;8.07;;;3.17;;
52964;SDS011;42923;53.220;6.528;2023-08-01T05:12:21;9.95;;;3.10;;
52964;SDS011;42923;53.220;6.528;2023-08-01T05:14:46;18.38;;;3.60;;
52964;SDS011;42923;53.220;6.528;2023-08-01T05:17:12;10.40;;;3.25;;
52964;SDS011;42923;53.220;6.528;2023-08-01T05:19:38;12.43;;;3.60;;
52964;SDS011;42923;53.220;6.528;2023-08-01T05:22:04;12.32;;;3.40;;
52964;SDS011;42923;53.220;6.528;2023-08-01T05:24:30;11.32;;;3.33;;
52964;SDS011;42923;53.220;6.528;2023-08-01T05:26:56;11.27;;;3.38;;
52964;SDS011;42923;53.220;6.528;2023-08-01T05:29:22;19.65;;;4.13;;
52964;SDS011;42923;53.220;6.528;2023-08-01T05:31:48;7.32;;;2.58;;
52964;SDS011;42923;53.220;6.528;2023-08-01T05:34:13;8.45;;;2.88;;
52964;SDS011;42923;53.220;6.528;2023-08-01T05:36:39;5.97;;;2.70;;
52964;SDS011;42923;53.220;6.528;2023-08-01T05:39:05;9.73;;;3.05;;
52964;SDS011;42923;53.220;6.528;2023-08-01T05:41:31;8.30;;;2.70;;
52964;SDS011;42923;53.220;6.528;2023-08-01T05:43:57;6.95;;;2.53;;
52964;SDS011;42923;53.220;6.528;2023-08-01T05:46:23;9.85;;;2.65;;
52964;SDS011;42923;53.220;6.528;2023-08-01T05:48:49;10.75;;;2.83;;
52964;SDS011;42923;53.220;6.528;2023-08-01T05:51:15;10.98;;;3.10;;
52964;SDS011;42923;53.220;6.528;2023-08-01T05:53:40;9.73;;;3.10;;
52964;SDS011;42923;53.220;6.528;2023-08-01T05:56:06;10.45;;;3.38;;
52964;SDS011;42923;53.220;6.528;2023-08-01T05:58:32;10.50;;;3.30;;
52964;SDS011;42923;53.220;6.528;2023-08-01T06:00:58;9.88;;;3.17;;
52964;SDS011;42923;53.220;6.528;2023-08-01T06:03:24;9.45;;;3.88;;
52964;SDS011;42923;53.220;6.528;2023-08-01T06:05:49;7.13;;;3.58;;
52964;SDS011;42923;53.220;6.528;2023-08-01T06:08:15;4.43;;;3.00;;
52964;SDS011;42923;53.220;6.528;2023-08-01T06:10:41;7.03;;;2.67;;
52964;SDS011;42923;53.220;6.528;2023-08-01T06:13:07;8.82;;;3.38;;
52964;SDS011;42923;53.220;6.528;2023-08-01T06:15:33;6.80;;;2.88;;
52964;SDS011;42923;53.220;6.528;2023-08-01T06:17:59;11.48;;;3.72;;
52964;SDS011;42923;53.220;6.528;2023-08-01T06:20:25;9.10;;;3.20;;
52964;SDS011;42923;53.220;6.528;2023-08-01T06:22:51;8.52;;;3.47;;
52964;SDS011;42923;53.220;6.528;2023-08-01T06:25:16;7.22;;;3.05;;
52964;SDS011;42923;53.220;6.528;2023-08-01T06:27:42;5.38;;;2.60;;
52964;SDS011;42923;53.220;6.528;2023-08-01T06:30:08;5.47;;;2.70;;
52964;SDS011;42923;53.220;6.528;2023-08-01T06:32:35;12.60;;;3.38;;
52964;SDS011;42923;53.220;6.528;2023-08-01T06:35:00;5.43;;;2.50;;
52964;SDS011;42923;53.220;6.528;2023-08-01T06:37:26;7.05;;;2.65;;
52964;SDS011;42923;53.220;6.528;2023-08-01T06:39:52;5.43;;;2.70;;
52964;SDS011;42923;53.220;6.528;2023-08-01T06:42:19;5.65;;;2.38;;
52964;SDS011;42923;53.220;6.528;2023-08-01T06:44:45;6.95;;;2.15;;
52964;SDS011;42923;53.220;6.528;2023-08-01T06:47:11;10.02;;;2.55;;
52964;SDS011;42923;53.220;6.528;2023-08-01T06:49:37;5.90;;;2.45;;
52964;SDS011;42923;53.220;6.528;2023-08-01T06:52:02;3.67;;;2.22;;
52964;SDS011;42923;53.220;6.528;2023-08-01T06:54:29;4.32;;;2.20;;
52964;SDS011;42923;53.220;6.528;2023-08-01T06:56:54;4.00;;;1.90;;
52964;SDS011;42923;53.220;6.528;2023-08-01T06:59:20;8.75;;;2.08;;
52964;SDS011;42923;53.220;6.528;2023-08-01T07:01:46;6.80;;;2.10;;
52964;SDS011;42923;53.220;6.528;2023-08-01T07:04:12;5.82;;;2.22;;
52964;SDS011;42923;53.220;6.528;2023-08-01T07:06:38;6.30;;;3.13;;
52964;SDS011;42923;53.220;6.528;2023-08-01T07:09:04;6.38;;;2.10;;
52964;SDS011;42923;53.220;6.528;2023-08-01T07:11:30;4.53;;;1.92;;
52964;SDS011;42923;53.220;6.528;2023-08-01T07:13:56;5.72;;;1.83;;
52964;SDS011;42923;53.220;6.528;2023-08-01T07:16:22;8.35;;;2.42;;
52964;SDS011;42923;53.220;6.528;2023-08-01T07:18:48;7.10;;;3.10;;
52964;SDS011;42923;53.220;6.528;2023-08-01T07:21:13;6.18;;;2.08;;
52964;SDS011;42923;53.220;6.528;2023-08-01T07:23:39;7.40;;;1.92;;
52964;SDS011;42923;53.220;6.528;2023-08-01T07:26:05;6.50;;;2.33;;
52964;SDS011;42923;53.220;6.528;2023-08-01T07:28:31;8.77;;;2.75;;
52964;SDS011;42923;53.220;6.528;2023-08-01T07:31:00;7.45;;;2.35;;
52964;SDS011;42923;53.220;6.528;2023-08-01T07:33:27;6.18;;;1.60;;
52964;SDS011;42923;53.220;6.528;2023-08-01T07:35:53;11.82;;;2.28;;
52964;SDS011;42923;53.220;6.528;2023-08-01T07:38:19;7.15;;;2.13;;
52964;SDS011;42923;53.220;6.528;2023-08-01T07:40:45;4.65;;;1.67;;
52964;SDS011;42923;53.220;6.528;2023-08-01T07:43:11;8.85;;;1.42;;
52964;SDS011;42923;53.220;6.528;2023-08-01T07:45:37;6.97;;;1.85;;
52964;SDS011;42923;53.220;6.528;2023-08-01T07:48:03;10.30;;;1.52;;
52964;SDS011;42923;53.220;6.528;2023-08-01T07:50:30;6.93;;;1.63;;
52964;SDS011;42923;53.220;6.528;2023-08-01T07:52:55;9.32;;;2.05;;
52964;SDS011;42923;53.220;6.528;2023-08-01T07:55:22;7.50;;;1.70;;
52964;SDS011;42923;53.220;6.528;2023-08-01T07:57:48;10.45;;;1.55;;
52964;SDS011;42923;53.220;6.528;2023-08-01T08:00:14;8.85;;;2.50;;
52964;SDS011;42923;53.220;6.528;2023-08-01T08:02:44;5.47;;;1.45;;
52964;SDS011;42923;53.220;6.528;2023-08-01T08:05:11;4.00;;;1.95;;
52964;SDS011;42923;53.220;6.528;2023-08-01T08:07:37;4.55;;;2.03;;
52964;SDS011;42923;53.220;6.528;2023-08-01T08:10:04;5.35;;;1.60;;
52964;SDS011;42923;53.220;6.528;2023-08-01T08:12:31;6.45;;;1.45;;
52964;SDS011;42923;53.220;6.528;2023-08-01T08:14:57;4.90;;;1.60;;
52964;SDS011;42923;53.220;6.528;2023-08-01T08:17:22;2.88;;;1.10;;
52964;SDS011;42923;53.220;6.528;2023-08-01T08:19:48;7.63;;;1.80;;
52964;SDS011;42923;53.220;6.528;2023-08-01T08:22:14;3.58;;;1.40;;
52964;SDS011;42923;53.220;6.528;2023-08-01T08:24:40;3.78;;;1.60;;
52964;SDS011;42923;53.220;6.528;2023-08-01T08:27:05;3.33;;;1.52;;
52964;SDS011;42923;53.220;6.528;2023-08-01T08:29:31;3.65;;;1.70;;
52964;SDS011;42923;53.220;6.528;2023-08-01T08:31:58;4.03;;;1.67;;
52964;SDS011;42923;53.220;6.528;2023-08-01T08:34:24;7.93;;;2.38;;
52964;SDS011;42923;53.220;6.528;2023-08-01T08:36:50;6.18;;;2.05;;
52964;SDS011;42923;53.220;6.528;2023-08-01T08:39:17;8.13;;;2.00;;
52964;SDS011;42923;53.220;6.528;2023-08-01T08:41:47;7.75;;;2.03;;
52964;SDS011;42923;53.220;6.528;2023-08-01T08:44:14;9.93;;;2.55;;
52964;SDS011;42923;53.220;6.528;2023-08-01T08:46:51;7.78;;;2.08;;
52964;SDS011;42923;53.220;6.528;2023-08-01T08:49:17;10.25;;;1.92;;
52964;SDS011;42923;53.220;6.528;2023-08-01T08:51:47;8.63;;;1.90;;
52964;SDS011;42923;53.220;6.528;2023-08-01T08:54:14;11.20;;;3.22;;
52964;SDS011;42923;53.220;6.528;2023-08-01T08:56:40;7.70;;;2.22;;
52964;SDS011;42923;53.220;6.528;2023-08-01T08:59:07;12.27;;;2.88;;
52964;SDS011;42923;53.220;6.528;2023-08-01T09:01:35;8.15;;;2.72;;
52964;SDS011;42923;53.220;6.528;2023-08-01T09:04:02;7.78;;;2.50;;
52964;SDS011;42923;53.220;6.528;2023-08-01T09:06:30;6.65;;;2.13;;
52964;SDS011;42923;53.220;6.528;2023-08-01T09:11:37;9.35;;;2.65;;
52964;SDS011;42923;53.220;6.528;2023-08-01T09:14:11;6.70;;;1.83;;
52964;SDS011;42923;53.220;6.528;2023-08-01T09:16:37;9.68;;;2.17;;
52964;SDS011;42923;53.220;6.528;2023-08-01T09:19:05;6.70;;;2.22;;
52964;SDS011;42923;53.220;6.528;2023-08-01T09:21:32;5.20;;;1.73;;
52964;SDS011;42923;53.220;6.528;2023-08-01T09:24:10;3.22;;;1.58;;
52964;SDS011;42923;53.220;6.528;2023-08-01T09:26:37;6.22;;;1.70;;
52964;SDS011;42923;53.220;6.528;2023-08-01T09:29:03;4.10;;;1.58;;
52964;SDS011;42923;53.220;6.528;2023-08-01T09:31:30;4.75;;;1.70;;
52964;SDS011;42923;53.220;6.528;2023-08-01T09:34:01;5.88;;;1.83;;
52964;SDS011;42923;53.220;6.528;2023-08-01T09:36:31;6.75;;;2.20;;
52964;SDS011;42923;53.220;6.528;2023-08-01T09:39:01;6.70;;;1.42;;
52964;SDS011;42923;53.220;6.528;2023-08-01T09:41:31;4.43;;;1.73;;
52964;SDS011;42923;53.220;6.528;2023-08-01T09:43:57;7.88;;;2.75;;
52964;SDS011;42923;53.220;6.528;2023-08-01T09:46:23;2.95;;;1.40;;
52964;SDS011;42923;53.220;6.528;2023-08-01T09:48:49;3.30;;;1.38;;
52964;SDS011;42923;53.220;6.528;2023-08-01T09:51:16;3.40;;;1.27;;
52964;SDS011;42923;53.220;6.528;2023-08-01T09:53:46;3.67;;;1.15;;
52964;SDS011;42923;53.220;6.528;2023-08-01T09:56:19;4.07;;;1.52;;
52964;SDS011;42923;53.220;6.528;2023-08-01T09:58:47;9.27;;;1.88;;
52964;SDS011;42923;53.220;6.528;2023-08-01T10:01:18;5.88;;;1.50;;
52964;SDS011;42923;53.220;6.528;2023-08-01T10:03:46;7.50;;;1.80;;
52964;SDS011;42923;53.220;6.528;2023-08-01T10:06:23;4.22;;;1.30;;
52964;SDS011;42923;53.220;6.528;2023-08-01T10:08:53;5.35;;;2.33;;
52964;SDS011;42923;53.220;6.528;2023-08-01T10:11:19;3.05;;;1.20;;
52964;SDS011;42923;53.220;6.528;2023-08-01T10:13:46;5.50;;;1.55;;
52964;SDS011;42923;53.220;6.528;2023-08-01T10:16:13;3.00;;;1.40;;
52964;SDS011;42923;53.220;6.528;2023-08-01T10:18:39;7.32;;;2.00;;
52964;SDS011;42923;53.220;6.528;2023-08-01T10:21:06;7.55;;;1.85;;
52964;SDS011;42923;53.220;6.528;2023-08-01T10:23:41;4.63;;;1.38;;
52964;SDS011;42923;53.220;6.528;2023-08-01T10:26:09;5.25;;;1.50;;
52964;SDS011;42923;53.220;6.528;2023-08-01T10:28:37;10.02;;;2.33;;
52964;SDS011;42923;53.220;6.528;2023-08-01T10:31:09;4.75;;;1.73;;
52964;SDS011;42923;53.220;6.528;2023-08-01T10:33:39;5.25;;;1.65;;
52964;SDS011;42923;53.220;6.528;2023-08-01T10:36:16;4.05;;;1.70;;
52964;SDS011;42923;53.220;6.528;2023-08-01T10:38:52;4.05;;;2.08;;
52964;SDS011;42923;53.220;6.528;2023-08-01T10:41:25;5.82;;;2.13;;
52964;SDS011;42923;53.220;6.528;2023-08-01T10:43:51;8.07;;;1.60;;
52964;SDS011;42923;53.220;6.528;2023-08-01T10:46:17;7.82;;;1.70;;
52964;SDS011;42923;53.220;6.528;2023-08-01T10:48:52;2.78;;;1.48;;
52964;SDS011;42923;53.220;6.528;2023-08-01T10:51:18;7.43;;;1.70;;
52964;SDS011;42923;53.220;6.528;2023-08-01T10:53:44;7.47;;;1.80;;
52964;SDS011;42923;53.220;6.528;2023-08-01T10:56:18;8.65;;;1.65;;
52964;SDS011;42923;53.220;6.528;2023-08-01T10:58:44;4.45;;;2.03;;
52964;SDS011;42923;53.220;6.528;2023-08-01T11:01:11;4.68;;;1.63;;
52964;SDS011;42923;53.220;6.528;2023-08-01T11:03:38;5.70;;;1.95;;
52964;SDS011;42923;53.220;6.528;2023-08-01T11:06:04;3.85;;;1.60;;
52964;SDS011;42923;53.220;6.528;2023-08-01T11:08:34;5.45;;;1.50;;
52964;SDS011;42923;53.220;6.528;2023-08-01T11:11:08;5.07;;;1.60;;
52964;SDS011;42923;53.220;6.528;2023-08-01T11:13:36;5.35;;;1.60;;
52964;SDS011;42923;53.220;6.528;2023-08-01T11:16:03;7.72;;;2.22;;
52964;SDS011;42923;53.220;6.528;2023-08-01T11:18:30;5.32;;;1.35;;
52964;SDS011;42923;53.220;6.528;2023-08-01T11:20:56;5.47;;;1.40;;
52964;SDS011;42923;53.220;6.528;2023-08-01T11:23:29;5.80;;;1.23;;
52964;SDS011;42923;53.220;6.528;2023-08-01T11:25:55;7.07;;;1.30;;
52964;SDS011;42923;53.220;6.528;2023-08-01T11:28:21;7.22;;;2.03;;
52964;SDS011;42923;53.220;6.528;2023-08-01T11:30:48;6.40;;;1.50;;
52964;SDS011;42923;53.220;6.528;2023-08-01T11:33:20;3.72;;;1.15;;
52964;SDS011;42923;53.220;6.528;2023-08-01T11:35:54;5.15;;;1.30;;
52964;SDS011;42923;53.220;6.528;2023-08-01T11:38:28;6.95;;;1.73;;
52964;SDS011;42923;53.220;6.528;2023-08-01T11:40:56;4.57;;;1.30;;
52964;SDS011;42923;53.220;6.528;2023-08-01T11:43:22;7.22;;;1.35;;
52964;SDS011;42923;53.220;6.528;2023-08-01T11:45:52;3.95;;;1.70;;
52964;SDS011;42923;53.220;6.528;2023-08-01T11:48:20;5.03;;;1.25;;
52964;SDS011;42923;53.220;6.528;2023-08-01T11:50:47;3.65;;;1.20;;
52964;SDS011;42923;53.220;6.528;2023-08-01T11:53:20;6.90;;;1.33;;
52964;SDS011;42923;53.220;6.528;2023-08-01T11:55:46;3.42;;;1.20;;
52964;SDS011;42923;53.220;6.528;2023-08-01T11:58:13;2.50;;;0.80;;
52964;SDS011;42923;53.220;6.528;2023-08-01T12:00:39;3.53;;;1.40;;
52964;SDS011;42923;53.220;6.528;2023-08-01T12:03:07;6.15;;;1.50;;
52964;SDS011;42923;53.220;6.528;2023-08-01T12:05:40;6.50;;;1.38;;
52964;SDS011;42923;53.220;6.528;2023-08-01T12:08:13;4.38;;;1.05;;
52964;SDS011;42923;53.220;6.528;2023-08-01T12:10:40;4.22;;;1.45;;
52964;SDS011;42923;53.220;6.528;2023-08-01T12:13:18;4.63;;;1.25;;
52964;SDS011;42923;53.220;6.528;2023-08-01T12:15:46;7.50;;;1.60;;
52964;SDS011;42923;53.220;6.528;2023-08-01T12:18:23;5.47;;;1.73;;
52964;SDS011;42923;53.220;6.528;2023-08-01T12:20:49;5.13;;;1.30;;
52964;SDS011;42923;53.220;6.528;2023-08-01T12:23:16;4.40;;;1.70;;
52964;SDS011;42923;53.220;6.528;2023-08-01T12:25:42;7.55;;;1.75;;
52964;SDS011;42923;53.220;6.528;2023-08-01T12:28:08;3.47;;;1.48;;
52964;SDS011;42923;53.220;6.528;2023-08-01T12:30:34;6.97;;;1.20;;
52964;SDS011;42923;53.220;6.528;2023-08-01T12:33:00;3.97;;;1.60;;
52964;SDS011;42923;53.220;6.528;2023-08-01T12:35:26;4.88;;;1.65;;
52964;SDS011;42923;53.220;6.528;2023-08-01T12:37:52;5.82;;;1.65;;
52964;SDS011;42923;53.220;6.528;2023-08-01T12:40:19;4.43;;;2.15;;
52964;SDS011;42923;53.220;6.528;2023-08-01T12:42:45;4.55;;;1.48;;
52964;SDS011;42923;53.220;6.528;2023-08-01T12:45:11;7.80;;;2.90;;
52964;SDS011;42923;53.220;6.528;2023-08-01T12:47:37;7.00;;;1.55;;
52964;SDS011;42923;53.220;6.528;2023-08-01T12:50:03;4.90;;;1.40;;
52964;SDS011;42923;53.220;6.528;2023-08-01T12:52:29;6.20;;;1.52;;
52964;SDS011;42923;53.220;6.528;2023-08-01T12:54:55;3.92;;;1.55;;
52964;SDS011;42923;53.220;6.528;2023-08-01T12:57:21;3.92;;;1.30;;
52964;SDS011;42923;53.220;6.528;2023-08-01T12:59:46;9.98;;;2.55;;
52964;SDS011;42923;53.220;6.528;2023-08-01T13:02:13;8.23;;;1.70;;
52964;SDS011;42923;53.220;6.528;2023-08-01T13:04:39;4.68;;;1.85;;
52964;SDS011;42923;53.220;6.528;2023-08-01T13:07:05;5.22;;;2.00;;
52964;SDS011;42923;53.220;6.528;2023-08-01T13:09:31;4.32;;;1.52;;
52964;SDS011;42923;53.220;6.528;2023-08-01T13:11:56;8.73;;;2.15;;
52964;SDS011;42923;53.220;6.528;2023-08-01T13:14:25;5.13;;;1.40;;
52964;SDS011;42923;53.220;6.528;2023-08-01T13:16:51;6.68;;;1.70;;
52964;SDS011;42923;53.220;6.528;2023-08-01T13:19:17;5.70;;;1.20;;
52964;SDS011;42923;53.220;6.528;2023-08-01T13:21:43;4.78;;;1.40;;
52964;SDS011;42923;53.220;6.528;2023-08-01T13:24:09;5.40;;;1.70;;
52964;SDS011;42923;53.220;6.528;2023-08-01T13:26:35;1.92;;;1.10;;
52964;SDS011;42923;53.220;6.528;2023-08-01T13:29:01;5.15;;;1.50;;
52964;SDS011;42923;53.220;6.528;2023-08-01T13:31:27;5.20;;;1.40;;
52964;SDS011;42923;53.220;6.528;2023-08-01T13:33:54;3.13;;;1.33;;
52964;SDS011;42923;53.220;6.528;2023-08-01T13:36:20;3.50;;;1.38;;
52964;SDS011;42923;53.220;6.528;2023-08-01T13:38:46;5.38;;;1.63;;
52964;SDS011;42923;53.220;6.528;2023-08-01T13:41:13;6.03;;;1.65;;
52964;SDS011;42923;53.220;6.528;2023-08-01T13:43:39;5.63;;;2.30;;
52964;SDS011;42923;53.220;6.528;2023-08-01T13:46:11;8.93;;;1.85;;
52964;SDS011;42923;53.220;6.528;2023-08-01T13:48:40;3.33;;;1.38;;
52964;SDS011;42923;53.220;6.528;2023-08-01T13:51:06;4.47;;;1.27;;
52964;SDS011;42923;53.220;6.528;2023-08-01T13:53:32;4.22;;;1.35;;
52964;SDS011;42923;53.220;6.528;2023-08-01T13:55:59;5.78;;;1.40;;
52964;SDS011;42923;53.220;6.528;2023-08-01T13:58:24;4.40;;;1.52;;
52964;SDS011;42923;53.220;6.528;2023-08-01T14:00:50;3.53;;;1.13;;
52964;SDS011;42923;53.220;6.528;2023-08-01T14:03:16;4.28;;;1.67;;
52964;SDS011;42923;53.220;6.528;2023-08-01T14:05:42;2.83;;;1.05;;
52964;SDS011;42923;53.220;6.528;2023-08-01T14:08:07;3.53;;;1.52;;
52964;SDS011;42923;53.220;6.528;2023-08-01T14:10:33;2.65;;;1.17;;
52964;SDS011;42923;53.220;6.528;2023-08-01T14:12:59;5.28;;;1.15;;
52964;SDS011;42923;53.220;6.528;2023-08-01T14:15:25;5.60;;;1.48;;
52964;SDS011;42923;53.220;6.528;2023-08-01T14:17:50;3.83;;;1.38;;
52964;SDS011;42923;53.220;6.528;2023-08-01T14:20:17;3.70;;;1.30;;
52964;SDS011;42923;53.220;6.528;2023-08-01T14:22:44;4.65;;;1.55;;
52964;SDS011;42923;53.220;6.528;2023-08-01T14:25:10;5.05;;;1.70;;
52964;SDS011;42923;53.220;6.528;2023-08-01T14:27:36;4.65;;;1.40;;
52964;SDS011;42923;53.220;6.528;2023-08-01T14:30:02;5.25;;;1.38;;
52964;SDS011;42923;53.220;6.528;2023-08-01T14:32:28;4.85;;;1.38;;
52964;SDS011;42923;53.220;6.528;2023-08-01T14:34:54;6.50;;;1.65;;
52964;SDS011;42923;53.220;6.528;2023-08-01T14:37:20;2.50;;;1.10;;
52964;SDS011;42923;53.220;6.528;2023-08-01T14:39:51;4.22;;;1.77;;
52964;SDS011;42923;53.220;6.528;2023-08-01T14:42:17;4.63;;;1.17;;
52964;SDS011;42923;53.220;6.528;2023-08-01T14:44:42;4.57;;;1.40;;
52964;SDS011;42923;53.220;6.528;2023-08-01T14:47:08;4.47;;;1.45;;